Browns Hollow, New York
Current Conditions -  °F | °C
As of 6:15 AM on Wednesday 26 Nov 2014 (Local Time) from KNY0 Reporting Station
Broken Clouds Broken Clouds  
Wind Chill: 32°   Ceiling: 3700
Heat Index: 32°   Visibility: 10mi
Dew Point: 26°   Wind: 3mph
Humidity: 78%   Direction: 270°W
Pressure: 30.18"   Gusts: NA
Location:  42.8548°N, 74.5942°W
Report Text: KNY0 261115Z AUTO 27003KT 10SM BKN037 00/M03 A3018 RMK AO2 T00001034
Loading
Personal Weather Stations






























Interactive Weather Map New forecast layout! Learn more

10-Day Weather Forecast

Advertisements
Track Severe Weather on mobile